createdAt,value
2023-10-20T00:00:42.286Z,16.37
2023-10-20T00:03:09.989Z,16.40
2023-10-20T00:05:37.074Z,16.42
2023-10-20T00:08:03.953Z,16.38
2023-10-20T00:10:38.181Z,16.37
2023-10-20T00:13:05.987Z,16.40
2023-10-20T00:15:34.348Z,16.44
2023-10-20T00:18:00.882Z,16.43
2023-10-20T00:20:27.309Z,16.44
2023-10-20T00:22:53.674Z,16.44
2023-10-20T00:25:20.317Z,16.46
2023-10-20T00:27:46.697Z,16.48
2023-10-20T00:30:13.252Z,16.51
2023-10-20T00:32:42.899Z,16.49
2023-10-20T00:35:11.056Z,16.52
2023-10-20T00:37:37.692Z,16.54
2023-10-20T00:40:12.319Z,16.49
2023-10-20T00:42:39.528Z,16.50
2023-10-20T00:45:07.608Z,16.50
2023-10-20T00:47:34.673Z,16.49
2023-10-20T00:50:01.312Z,16.53
2023-10-20T00:52:30.515Z,16.55
2023-10-20T00:54:58.270Z,16.55
2023-10-20T00:57:25.024Z,16.53
2023-10-20T00:59:51.436Z,16.44
2023-10-20T01:02:17.986Z,16.45
2023-10-20T01:04:44.656Z,16.49
2023-10-20T01:07:11.928Z,16.51
2023-10-20T01:09:38.474Z,16.49
2023-10-20T01:12:05.600Z,16.51
2023-10-20T01:14:32.320Z,16.52
2023-10-20T01:16:59.051Z,16.48
2023-10-20T01:19:25.595Z,16.52
2023-10-20T01:21:51.934Z,16.52
2023-10-20T01:24:18.467Z,16.53
2023-10-20T01:26:45.193Z,16.57
2023-10-20T01:29:13.429Z,16.54
2023-10-20T01:31:40.256Z,16.52
2023-10-20T01:34:06.868Z,16.52
2023-10-20T01:36:33.386Z,16.57
2023-10-20T01:39:00.689Z,16.56
2023-10-20T01:41:27.538Z,16.57
2023-10-20T01:43:54.103Z,16.59
2023-10-20T01:46:20.559Z,16.61
2023-10-20T01:48:47.013Z,16.64
2023-10-20T01:51:13.339Z,16.65
2023-10-20T01:53:39.714Z,16.60
2023-10-20T01:56:06.237Z,16.62
2023-10-20T01:58:33.182Z,16.62
2023-10-20T02:00:59.657Z,16.61
2023-10-20T02:03:26.237Z,16.60
2023-10-20T02:05:52.904Z,16.59
2023-10-20T02:08:19.552Z,16.57
2023-10-20T02:10:46.377Z,16.56
2023-10-20T02:13:12.941Z,16.55
2023-10-20T02:15:40.035Z,16.60
2023-10-20T02:18:07.862Z,16.59
2023-10-20T02:20:34.579Z,16.60
2023-10-20T02:23:01.018Z,16.54
2023-10-20T02:25:27.393Z,16.54
2023-10-20T02:27:53.802Z,16.52
2023-10-20T02:30:20.324Z,16.55
2023-10-20T02:32:46.781Z,16.58
2023-10-20T02:35:13.925Z,16.58
2023-10-20T02:37:40.383Z,16.56
2023-10-20T02:40:07.469Z,16.58
2023-10-20T02:42:34.200Z,16.61
2023-10-20T02:45:00.854Z,16.59
2023-10-20T02:47:27.475Z,16.58
2023-10-20T02:49:57.545Z,16.59
2023-10-20T02:52:24.452Z,16.62
2023-10-20T02:54:54.529Z,16.65
2023-10-20T02:57:22.121Z,16.63
2023-10-20T02:59:49.401Z,16.68
2023-10-20T03:02:21.442Z,16.63
2023-10-20T03:04:48.154Z,16.69
2023-10-20T03:07:14.580Z,16.70
2023-10-20T03:09:40.966Z,16.72
2023-10-20T03:12:07.501Z,16.74
2023-10-20T03:14:34.988Z,16.74
2023-10-20T03:17:01.918Z,16.75
2023-10-20T03:19:28.594Z,16.70
2023-10-20T03:21:55.305Z,16.73
2023-10-20T03:24:21.680Z,16.72
2023-10-20T03:26:49.384Z,16.74
2023-10-20T03:29:15.974Z,16.73
2023-10-20T03:31:43.209Z,16.70
2023-10-20T03:34:09.666Z,16.74
2023-10-20T03:36:36.011Z,16.77
2023-10-20T03:39:02.852Z,16.81
2023-10-20T03:41:30.482Z,16.76
2023-10-20T03:43:56.944Z,16.75
2023-10-20T03:46:23.486Z,16.75
2023-10-20T03:48:50.024Z,16.75
2023-10-20T03:51:18.080Z,16.78
2023-10-20T03:53:48.277Z,16.80
2023-10-20T03:56:16.187Z,16.79
2023-10-20T03:58:43.501Z,16.74
2023-10-20T04:01:10.393Z,16.71
2023-10-20T04:03:36.979Z,16.65
2023-10-20T04:06:08.998Z,16.66
2023-10-20T04:08:35.923Z,16.68
2023-10-20T04:11:02.605Z,16.69
2023-10-20T04:13:30.472Z,16.70
2023-10-20T04:15:57.179Z,16.71
2023-10-20T04:18:24.117Z,16.75
2023-10-20T04:20:51.201Z,16.75
2023-10-20T04:23:18.504Z,16.68
2023-10-20T04:25:54.647Z,16.63
2023-10-20T04:28:29.267Z,16.64
2023-10-20T04:31:14.387Z,16.67
2023-10-20T04:33:59.689Z,16.65
2023-10-20T04:36:44.725Z,16.62
2023-10-20T04:39:29.494Z,16.59
2023-10-20T04:42:14.394Z,16.62
2023-10-20T04:44:49.718Z,16.54
2023-10-20T04:47:25.863Z,16.50
2023-10-20T04:49:56.211Z,16.53
2023-10-20T04:52:40.824Z,16.53
2023-10-20T04:55:13.551Z,16.51
2023-10-20T04:57:45.869Z,16.51
2023-10-20T05:00:13.701Z,16.48
2023-10-20T05:02:58.183Z,16.48
2023-10-20T05:05:35.531Z,16.43
2023-10-20T05:08:06.702Z,16.44
2023-10-20T05:10:33.805Z,16.41
2023-10-20T05:13:00.927Z,16.46
2023-10-20T05:15:27.507Z,16.43
2023-10-20T05:17:54.515Z,16.38
2023-10-20T05:20:21.425Z,16.38
2023-10-20T05:22:48.499Z,16.39
2023-10-20T05:25:15.378Z,16.36
2023-10-20T05:27:42.122Z,16.41
2023-10-20T05:30:10.357Z,16.40
2023-10-20T05:32:38.897Z,16.33
2023-10-20T05:35:08.415Z,16.36
2023-10-20T05:37:35.366Z,16.35
2023-10-20T05:40:02.833Z,16.33
2023-10-20T05:42:29.460Z,16.34
2023-10-20T05:45:10.964Z,16.34
2023-10-20T05:47:39.236Z,16.34
2023-10-20T05:50:07.415Z,16.30
2023-10-20T05:52:36.797Z,16.26
2023-10-20T05:55:04.498Z,16.27
2023-10-20T05:57:31.372Z,16.25
2023-10-20T06:00:00.595Z,16.30
2023-10-20T06:02:28.813Z,16.26
2023-10-20T06:04:55.535Z,16.23
2023-10-20T06:07:22.046Z,16.22
2023-10-20T06:09:50.399Z,16.25
2023-10-20T06:12:16.930Z,16.31
2023-10-20T06:14:43.630Z,16.25
2023-10-20T06:17:10.235Z,16.22
2023-10-20T06:19:36.985Z,16.22
2023-10-20T06:22:04.278Z,16.22
2023-10-20T06:24:30.704Z,16.22
2023-10-20T06:27:03.337Z,16.26
2023-10-20T06:29:33.112Z,16.25
2023-10-20T06:32:11.474Z,16.21
2023-10-20T06:34:42.232Z,16.24
2023-10-20T06:37:15.313Z,16.26
2023-10-20T06:39:42.815Z,16.22
2023-10-20T06:42:10.647Z,16.18
2023-10-20T06:44:37.467Z,16.22
2023-10-20T06:47:03.954Z,16.14
2023-10-20T06:49:30.672Z,16.17
2023-10-20T06:51:57.077Z,16.23
2023-10-20T06:54:23.426Z,16.23
2023-10-20T06:56:49.911Z,16.26
2023-10-20T06:59:16.489Z,16.30
2023-10-20T07:01:45.186Z,16.28
2023-10-20T07:04:12.258Z,16.21
2023-10-20T07:06:40.940Z,16.13
2023-10-20T07:09:14.338Z,16.16
2023-10-20T07:11:42.591Z,16.13
2023-10-20T07:14:11.169Z,16.09
2023-10-20T07:16:37.628Z,16.07
2023-10-20T07:19:04.727Z,16.07
2023-10-20T07:21:31.632Z,16.04
2023-10-20T07:23:57.990Z,16.08
2023-10-20T07:26:25.469Z,16.12
2023-10-20T07:28:52.030Z,16.04
2023-10-20T07:31:22.556Z,16.04
2023-10-20T07:33:52.549Z,16.01
2023-10-20T07:36:19.087Z,16.01
2023-10-20T07:38:45.667Z,16.03
2023-10-20T07:41:14.315Z,15.99
2023-10-20T07:43:41.783Z,16.01
2023-10-20T07:46:15.202Z,15.98
2023-10-20T07:48:41.561Z,15.96
2023-10-20T07:51:08.066Z,15.92
2023-10-20T07:53:34.603Z,15.91
2023-10-20T07:56:01.772Z,15.98
2023-10-20T07:58:29.190Z,16.00
2023-10-20T08:00:55.749Z,16.02
2023-10-20T08:03:23.880Z,15.98
2023-10-20T08:05:51.301Z,15.97
2023-10-20T08:08:18.574Z,16.00
2023-10-20T08:10:45.172Z,16.01
2023-10-20T08:13:11.531Z,16.07
2023-10-20T08:15:39.837Z,16.12
2023-10-20T08:18:09.543Z,16.14
2023-10-20T08:20:36.167Z,16.20
2023-10-20T08:23:02.725Z,16.15
2023-10-20T08:25:29.130Z,16.14
2023-10-20T08:27:55.494Z,16.18
2023-10-20T08:30:22.100Z,16.18
2023-10-20T08:32:48.672Z,16.18
2023-10-20T08:35:15.435Z,16.18
2023-10-20T08:37:41.859Z,16.18
2023-10-20T08:40:11.954Z,16.21
2023-10-20T08:42:41.852Z,16.18
2023-10-20T08:45:12.110Z,16.20
2023-10-20T08:47:41.363Z,16.20
2023-10-20T08:50:08.826Z,16.19
2023-10-20T08:52:37.645Z,16.19
2023-10-20T08:55:08.441Z,16.16
2023-10-20T08:57:34.981Z,16.20
2023-10-20T09:00:01.504Z,16.19
2023-10-20T09:02:38.662Z,16.21
2023-10-20T09:05:05.948Z,16.25
2023-10-20T09:07:32.341Z,16.21
2023-10-20T09:09:58.730Z,16.17
2023-10-20T09:12:26.939Z,16.20
2023-10-20T09:14:57.511Z,16.25
2023-10-20T09:17:24.756Z,16.26
2023-10-20T09:19:51.455Z,16.22
2023-10-20T09:22:29.621Z,16.29
2023-10-20T09:24:56.668Z,16.32
2023-10-20T09:27:23.542Z,16.36
2023-10-20T09:29:51.319Z,16.38
2023-10-20T09:32:18.225Z,16.29
2023-10-20T09:34:44.685Z,16.33
2023-10-20T09:37:13.295Z,16.34
2023-10-20T09:39:41.592Z,16.33
2023-10-20T09:42:12.426Z,16.26
2023-10-20T09:44:48.166Z,16.23
2023-10-20T09:47:23.938Z,16.28
2023-10-20T09:49:53.787Z,16.28
2023-10-20T09:52:20.287Z,16.34
2023-10-20T09:54:47.972Z,16.33
2023-10-20T09:57:16.074Z,16.34
2023-10-20T09:59:43.113Z,16.36
2023-10-20T10:02:09.912Z,16.36
2023-10-20T10:04:41.291Z,16.28
2023-10-20T10:07:09.097Z,16.30
2023-10-20T10:09:44.682Z,16.30
2023-10-20T10:12:15.337Z,16.32
2023-10-20T10:14:41.862Z,16.30
2023-10-20T10:17:10.857Z,16.35
2023-10-20T10:19:50.184Z,16.39
2023-10-20T10:22:17.157Z,16.41
2023-10-20T10:24:52.901Z,16.45
2023-10-20T10:27:20.869Z,16.41
2023-10-20T10:29:49.457Z,16.48
2023-10-20T10:32:20.912Z,16.53
2023-10-20T10:34:50.379Z,16.50
2023-10-20T10:37:30.519Z,16.48
2023-10-20T10:40:08.416Z,16.51
2023-10-20T10:42:45.145Z,16.51
2023-10-20T10:45:34.529Z,16.50
2023-10-20T10:48:06.442Z,16.41
2023-10-20T10:50:33.915Z,16.44
2023-10-20T10:53:01.004Z,16.44
2023-10-20T10:55:27.716Z,16.40
2023-10-20T10:57:54.396Z,16.46
2023-10-20T11:00:22.783Z,16.45
2023-10-20T11:02:50.013Z,16.37
2023-10-20T11:05:18.261Z,16.28
2023-10-20T11:08:03.037Z,16.19
2023-10-20T11:10:31.448Z,16.16
2023-10-20T11:12:58.815Z,16.17
2023-10-20T11:15:32.341Z,16.13
2023-10-20T11:18:02.121Z,16.15
2023-10-20T11:20:31.369Z,16.11
2023-10-20T11:22:58.888Z,16.17
2023-10-20T11:25:28.181Z,16.18
2023-10-20T11:27:57.951Z,16.29
2023-10-20T11:30:29.647Z,16.33
2023-10-20T11:32:56.744Z,16.31
2023-10-20T11:35:25.465Z,16.33
2023-10-20T11:37:52.967Z,16.30
2023-10-20T11:40:20.940Z,16.25
2023-10-20T11:42:47.871Z,16.23
2023-10-20T11:45:15.060Z,16.18
2023-10-20T11:47:42.083Z,16.24
2023-10-20T11:50:12.337Z,16.22
2023-10-20T11:52:42.880Z,16.22
2023-10-20T11:55:10.589Z,16.30
2023-10-20T11:57:37.632Z,16.29
2023-10-20T12:00:08.767Z,16.31
2023-10-20T12:02:35.745Z,16.34
2023-10-20T12:05:02.472Z,16.32
2023-10-20T12:07:29.408Z,16.33
2023-10-20T12:09:55.784Z,16.29
2023-10-20T12:12:22.384Z,16.32
2023-10-20T12:14:48.934Z,16.33
2023-10-20T12:17:16.099Z,16.36
2023-10-20T12:19:42.805Z,16.39
2023-10-20T12:22:11.723Z,16.38
2023-10-20T12:24:38.072Z,16.36
2023-10-20T12:27:04.832Z,16.41
2023-10-20T12:29:31.570Z,16.44
2023-10-20T12:32:00.063Z,16.38
2023-10-20T12:34:27.505Z,16.43
2023-10-20T12:36:54.050Z,16.43
2023-10-20T12:39:21.518Z,16.42
2023-10-20T12:41:51.176Z,16.39
2023-10-20T12:44:19.530Z,16.41
2023-10-20T12:46:46.011Z,16.46
2023-10-20T12:49:15.045Z,16.48
2023-10-20T12:51:42.642Z,16.47
2023-10-20T12:54:09.052Z,16.39
2023-10-20T12:56:35.549Z,16.37
2023-10-20T12:59:01.999Z,16.39
2023-10-20T13:01:28.585Z,16.41
2023-10-20T13:03:55.170Z,16.35
2023-10-20T13:06:21.758Z,16.31
2023-10-20T13:08:48.183Z,16.36
2023-10-20T13:11:14.686Z,16.35
2023-10-20T13:13:41.790Z,16.39
2023-10-20T13:16:09.355Z,16.43
2023-10-20T13:18:39.186Z,16.46
2023-10-20T13:21:08.715Z,16.45
2023-10-20T13:23:35.354Z,16.43
2023-10-20T13:26:07.844Z,16.38
2023-10-20T13:28:35.759Z,16.40
2023-10-20T13:31:12.381Z,16.50
2023-10-20T13:33:40.870Z,16.49
2023-10-20T13:36:11.133Z,16.47
2023-10-20T13:38:39.044Z,16.51
2023-10-20T13:41:06.684Z,16.52
2023-10-20T13:43:33.417Z,16.49
2023-10-20T13:46:00.116Z,16.42
2023-10-20T13:48:27.131Z,16.41
2023-10-20T13:50:53.721Z,16.38
2023-10-20T13:53:20.213Z,16.45
2023-10-20T13:55:47.189Z,16.44
2023-10-20T13:58:15.117Z,16.41
2023-10-20T14:00:41.978Z,16.45
2023-10-20T14:03:08.683Z,16.39
2023-10-20T14:05:35.873Z,16.42
2023-10-20T14:08:02.866Z,16.40
2023-10-20T14:10:29.321Z,16.46
2023-10-20T14:12:59.028Z,16.48
2023-10-20T14:15:25.761Z,16.54
2023-10-20T14:17:52.183Z,16.50
2023-10-20T14:20:19.019Z,16.53
2023-10-20T14:22:45.689Z,16.59
2023-10-20T14:25:12.302Z,16.70
2023-10-20T14:27:40.439Z,16.73
2023-10-20T14:30:08.141Z,16.77
2023-10-20T14:32:35.159Z,16.78
2023-10-20T14:35:01.860Z,16.79
2023-10-20T14:37:28.411Z,16.81
2023-10-20T14:39:54.973Z,16.79
2023-10-20T14:42:21.478Z,16.79
2023-10-20T14:44:49.730Z,16.79
2023-10-20T14:47:16.094Z,16.79
2023-10-20T14:49:42.714Z,16.74
2023-10-20T14:52:09.045Z,16.71
2023-10-20T14:54:35.379Z,16.67
2023-10-20T14:57:01.787Z,16.62
2023-10-20T14:59:28.279Z,16.57
2023-10-20T15:01:54.873Z,16.61
2023-10-20T15:04:29.925Z,16.49
2023-10-20T15:06:57.849Z,16.42
2023-10-20T15:09:24.875Z,16.43
2023-10-20T15:11:52.488Z,16.39
2023-10-20T15:14:19.025Z,16.38
2023-10-20T15:16:45.434Z,16.40
2023-10-20T15:19:12.045Z,16.38
2023-10-20T15:21:38.459Z,16.33
2023-10-20T15:24:05.496Z,16.34
2023-10-20T15:26:31.972Z,16.35
2023-10-20T15:28:58.746Z,16.36
2023-10-20T15:31:25.183Z,16.41
2023-10-20T15:33:51.739Z,16.36
2023-10-20T15:36:18.248Z,16.36
2023-10-20T15:38:45.577Z,16.38
2023-10-20T15:41:14.902Z,16.37
2023-10-20T15:43:41.492Z,16.37
2023-10-20T15:46:08.276Z,16.36
2023-10-20T15:48:36.221Z,16.37
2023-10-20T15:51:05.279Z,16.38
2023-10-20T15:53:31.818Z,16.38
2023-10-20T15:55:58.312Z,16.38
2023-10-20T15:58:24.761Z,16.41
2023-10-20T16:00:58.306Z,16.42
2023-10-20T16:03:25.002Z,16.48
2023-10-20T16:05:51.531Z,16.50
2023-10-20T16:08:17.933Z,16.56
2023-10-20T16:10:44.419Z,16.50
2023-10-20T16:13:10.820Z,16.46
2023-10-20T16:15:37.182Z,16.38
2023-10-20T16:18:04.075Z,16.34
2023-10-20T16:20:30.607Z,16.37
2023-10-20T16:22:57.034Z,16.40
2023-10-20T16:25:23.486Z,16.34
2023-10-20T16:27:49.942Z,16.36
2023-10-20T16:30:16.377Z,16.28
2023-10-20T16:32:42.953Z,16.23
2023-10-20T16:35:10.360Z,16.24
2023-10-20T16:37:37.194Z,16.17
2023-10-20T16:40:05.028Z,16.12
2023-10-20T16:42:31.383Z,16.05
2023-10-20T16:44:57.787Z,16.05
2023-10-20T16:47:24.332Z,16.04
2023-10-20T16:49:51.985Z,16.04
2023-10-20T16:52:18.613Z,16.03
2023-10-20T16:54:48.372Z,16.02
2023-10-20T16:57:14.725Z,15.99
2023-10-20T16:59:41.094Z,15.93
2023-10-20T17:02:07.625Z,15.91
2023-10-20T17:04:34.571Z,15.85
2023-10-20T17:07:01.012Z,15.88
2023-10-20T17:09:31.179Z,16.00
2023-10-20T17:11:57.521Z,16.04
2023-10-20T17:14:23.866Z,15.96
2023-10-20T17:16:50.332Z,15.95
2023-10-20T17:19:16.679Z,15.86
2023-10-20T17:21:43.183Z,15.83
2023-10-20T17:24:11.222Z,15.85
2023-10-20T17:26:37.788Z,15.83
2023-10-20T17:29:04.581Z,15.79
2023-10-20T17:31:31.068Z,15.83
2023-10-20T17:33:57.939Z,15.90
2023-10-20T17:36:24.315Z,15.90
2023-10-20T17:38:51.344Z,15.84
2023-10-20T17:41:17.902Z,15.76
2023-10-20T17:43:44.477Z,15.62
2023-10-20T17:46:18.150Z,15.59
2023-10-20T17:48:45.003Z,15.51
2023-10-20T17:51:11.724Z,15.47
2023-10-20T17:53:38.304Z,15.39
2023-10-20T17:56:05.728Z,15.35
2023-10-20T17:58:32.946Z,15.33
2023-10-20T18:01:11.413Z,15.31
2023-10-20T18:03:43.419Z,15.23
2023-10-20T18:06:18.495Z,15.23
2023-10-20T18:08:50.618Z,15.13
2023-10-20T18:11:18.738Z,15.10
2023-10-20T18:13:46.594Z,15.11
2023-10-20T18:16:16.236Z,15.09
2023-10-20T18:18:49.506Z,15.02
2023-10-20T18:21:19.054Z,14.98
2023-10-20T18:23:47.669Z,14.97
2023-10-20T18:26:14.845Z,14.97
2023-10-20T18:28:41.840Z,14.94
2023-10-20T18:31:15.486Z,14.93
2023-10-20T18:33:42.172Z,14.93
2023-10-20T18:36:09.443Z,14.94
2023-10-20T18:38:35.857Z,14.87
2023-10-20T18:41:06.232Z,14.82
2023-10-20T18:43:34.621Z,14.86
2023-10-20T18:46:01.524Z,14.88
2023-10-20T18:48:28.491Z,14.90
2023-10-20T18:51:07.609Z,14.86
2023-10-20T18:53:34.643Z,14.74
2023-10-20T18:56:01.919Z,14.74
2023-10-20T18:58:28.773Z,14.68
2023-10-20T19:00:55.307Z,14.75
2023-10-20T19:03:21.920Z,14.77
2023-10-20T19:05:49.522Z,14.72
2023-10-20T19:08:16.799Z,14.67
2023-10-20T19:10:43.184Z,14.64
2023-10-20T19:13:09.619Z,14.62
2023-10-20T19:15:36.057Z,14.63
2023-10-20T19:18:02.717Z,14.58
2023-10-20T19:20:29.406Z,14.62
2023-10-20T19:22:55.824Z,14.56
2023-10-20T19:25:22.274Z,14.55
2023-10-20T19:27:48.717Z,14.53
2023-10-20T19:30:15.392Z,14.55
2023-10-20T19:32:41.829Z,14.56
2023-10-20T19:35:10.109Z,14.54
2023-10-20T19:37:38.207Z,14.55
2023-10-20T19:40:05.675Z,14.52
2023-10-20T19:42:32.460Z,14.54
2023-10-20T19:44:59.593Z,14.50
2023-10-20T19:47:26.292Z,14.48
2023-10-20T19:49:52.805Z,14.54
2023-10-20T19:52:19.125Z,14.55
2023-10-20T19:54:45.582Z,14.55
2023-10-20T19:57:11.970Z,14.60
2023-10-20T19:59:38.565Z,14.62
2023-10-20T20:02:05.732Z,14.63
2023-10-20T20:04:33.930Z,14.66
2023-10-20T20:07:00.684Z,14.63
2023-10-20T20:09:27.019Z,14.63
2023-10-20T20:11:54.156Z,14.64
2023-10-20T20:14:20.574Z,14.61
2023-10-20T20:16:48.985Z,14.59
2023-10-20T20:19:16.002Z,14.56
2023-10-20T20:21:42.556Z,14.49
2023-10-20T20:24:09.516Z,14.45
2023-10-20T20:26:35.999Z,14.44
2023-10-20T20:29:04.038Z,14.43
2023-10-20T20:31:30.564Z,14.39
2023-10-20T20:33:56.976Z,14.32
2023-10-20T20:36:23.633Z,14.31
2023-10-20T20:38:50.223Z,14.32
2023-10-20T20:41:16.828Z,14.34
2023-10-20T20:43:43.847Z,14.34
2023-10-20T20:46:11.121Z,14.35
2023-10-20T20:48:37.707Z,14.32
2023-10-20T20:51:09.309Z,14.33
2023-10-20T20:53:35.816Z,14.29
2023-10-20T20:56:02.400Z,14.32
2023-10-20T20:58:28.750Z,14.35
2023-10-20T21:00:56.231Z,14.38
2023-10-20T21:03:22.896Z,14.41
2023-10-20T21:05:58.969Z,14.41
2023-10-20T21:08:26.008Z,14.41
2023-10-20T21:10:52.357Z,14.37
2023-10-20T21:13:18.842Z,14.35
2023-10-20T21:15:45.199Z,14.39
2023-10-20T21:18:11.650Z,14.35
2023-10-20T21:20:38.930Z,14.30
2023-10-20T21:23:05.317Z,14.25
2023-10-20T21:25:37.868Z,14.26
2023-10-20T21:28:04.938Z,14.15
2023-10-20T21:30:31.987Z,14.12
2023-10-20T21:32:58.405Z,14.16
2023-10-20T21:35:24.865Z,14.18
2023-10-20T21:37:51.260Z,14.17
2023-10-20T21:40:17.601Z,14.20
2023-10-20T21:42:44.078Z,14.15
2023-10-20T21:45:10.502Z,14.15
2023-10-20T21:47:36.985Z,14.15
2023-10-20T21:50:03.625Z,14.04
2023-10-20T21:52:30.012Z,14.07
2023-10-20T21:54:56.644Z,14.06
2023-10-20T21:57:23.113Z,13.99
2023-10-20T21:59:49.509Z,13.92
2023-10-20T22:02:16.516Z,13.80
2023-10-20T22:04:43.062Z,13.82
2023-10-20T22:07:09.458Z,13.78
2023-10-20T22:09:50.438Z,13.84
2023-10-20T22:12:19.882Z,13.99
2023-10-20T22:14:46.237Z,14.09
2023-10-20T22:17:12.680Z,14.12
2023-10-20T22:19:39.126Z,13.92
2023-10-20T22:22:05.500Z,13.85
2023-10-20T22:24:32.005Z,13.77
2023-10-20T22:26:58.599Z,13.85
2023-10-20T22:29:25.063Z,13.95
2023-10-20T22:31:51.806Z,13.98
2023-10-20T22:34:18.156Z,14.01
2023-10-20T22:36:44.565Z,14.03
2023-10-20T22:39:11.056Z,13.99
2023-10-20T22:41:37.546Z,14.01
2023-10-20T22:44:04.198Z,14.04
2023-10-20T22:46:30.709Z,14.03
2023-10-20T22:48:57.081Z,14.08
2023-10-20T22:51:23.462Z,14.15
2023-10-20T22:53:49.927Z,14.19
2023-10-20T22:56:16.339Z,14.23
2023-10-20T22:58:42.717Z,14.24
2023-10-20T23:01:09.188Z,14.26
2023-10-20T23:03:36.020Z,14.29
2023-10-20T23:06:02.854Z,14.29
2023-10-20T23:08:29.876Z,14.29
2023-10-20T23:10:56.865Z,14.25
2023-10-20T23:13:23.441Z,14.24
2023-10-20T23:15:49.783Z,14.26
2023-10-20T23:18:16.328Z,14.27
2023-10-20T23:20:43.461Z,14.34
2023-10-20T23:23:09.969Z,14.38
2023-10-20T23:25:36.394Z,14.38
2023-10-20T23:28:04.002Z,14.41
2023-10-20T23:30:30.436Z,14.42
2023-10-20T23:32:56.956Z,14.45
2023-10-20T23:35:25.171Z,14.50
2023-10-20T23:37:51.723Z,14.46
2023-10-20T23:40:18.553Z,14.51
2023-10-20T23:42:44.971Z,14.54
2023-10-20T23:45:11.444Z,14.51
2023-10-20T23:47:38.026Z,14.48
2023-10-20T23:50:06.570Z,14.50
2023-10-20T23:52:33.620Z,14.47
2023-10-20T23:55:00.021Z,14.50
2023-10-20T23:57:26.661Z,14.54
2023-10-20T23:59:53.102Z,14.56
